sensor_id;sensor_type;location;lat;lon;timestamp;pressure;altitude;pressure_sealevel;temperature;humidity
77799;BME280;66989;50.426;15.352;2024-03-23T00:54:52;97382.22;;;9.41;88.62
77799;BME280;66989;50.426;15.352;2024-03-23T00:57:17;97376.00;;;9.42;88.42
77799;BME280;66989;50.426;15.352;2024-03-23T00:59:43;97362.00;;;9.41;88.22
77799;BME280;66989;50.426;15.352;2024-03-23T01:02:08;97374.34;;;9.41;87.47
77799;BME280;66989;50.426;15.352;2024-03-23T01:04:33;97356.75;;;9.41;87.33
77799;BME280;66989;50.426;15.352;2024-03-23T01:06:59;97358.69;;;9.39;86.79
77799;BME280;66989;50.426;15.352;2024-03-23T01:09:24;97343.00;;;9.38;87.04
77799;BME280;66989;50.426;15.352;2024-03-23T01:11:49;97348.56;;;9.35;87.30
77799;BME280;66989;50.426;15.352;2024-03-23T01:14:15;97352.28;;;9.32;88.06
77799;BME280;66989;50.426;15.352;2024-03-23T01:16:40;97349.78;;;9.30;87.59
77799;BME280;66989;50.426;15.352;2024-03-23T01:19:05;97348.81;;;9.31;87.81
77799;BME280;66989;50.426;15.352;2024-03-23T01:21:31;97332.19;;;9.31;87.74
77799;BME280;66989;50.426;15.352;2024-03-23T01:23:57;97333.16;;;9.30;87.26
77799;BME280;66989;50.426;15.352;2024-03-23T01:26:23;97337.47;;;9.31;87.16
77799;BME280;66989;50.426;15.352;2024-03-23T01:28:49;97334.00;;;9.30;86.73
77799;BME280;66989;50.426;15.352;2024-03-23T01:31:14;97329.41;;;9.32;86.54
77799;BME280;66989;50.426;15.352;2024-03-23T01:33:41;97331.09;;;9.34;86.52
77799;BME280;66989;50.426;15.352;2024-03-23T01:36:06;97341.34;;;9.37;87.10
77799;BME280;66989;50.426;15.352;2024-03-23T01:38:31;97331.81;;;9.36;86.63
77799;BME280;66989;50.426;15.352;2024-03-23T01:40:57;97318.78;;;9.34;85.95
77799;BME280;66989;50.426;15.352;2024-03-23T01:43:23;97313.63;;;9.32;86.22
77799;BME280;66989;50.426;15.352;2024-03-23T01:45:48;97311.16;;;9.31;86.28
77799;BME280;66989;50.426;15.352;2024-03-23T01:48:13;97307.94;;;9.27;85.76
77799;BME280;66989;50.426;15.352;2024-03-23T01:50:39;97309.88;;;9.25;86.18
77799;BME280;66989;50.426;15.352;2024-03-23T01:53:05;97296.00;;;9.23;86.58
77799;BME280;66989;50.426;15.352;2024-03-23T01:55:32;97296.97;;;9.22;86.65
77799;BME280;66989;50.426;15.352;2024-03-23T01:57:58;97304.03;;;9.22;86.77
77799;BME280;66989;50.426;15.352;2024-03-23T02:00:24;97294.34;;;9.22;86.67
77799;BME280;66989;50.426;15.352;2024-03-23T02:02:49;97289.91;;;9.23;87.15
77799;BME280;66989;50.426;15.352;2024-03-23T02:05:15;97283.81;;;9.22;87.02
77799;BME280;66989;50.426;15.352;2024-03-23T02:07:41;97285.63;;;9.22;87.44
77799;BME280;66989;50.426;15.352;2024-03-23T02:10:10;97273.44;;;9.21;87.79
77799;BME280;66989;50.426;15.352;2024-03-23T02:12:36;97275.09;;;9.22;87.33
77799;BME280;66989;50.426;15.352;2024-03-23T02:15:03;97271.50;;;9.23;88.64
77799;BME280;66989;50.426;15.352;2024-03-23T02:17:30;97261.97;;;9.22;88.40
77799;BME280;66989;50.426;15.352;2024-03-23T02:19:56;97268.88;;;9.23;88.30
77799;BME280;66989;50.426;15.352;2024-03-23T02:22:21;97271.50;;;9.23;88.68
77799;BME280;66989;50.426;15.352;2024-03-23T02:24:47;97260.16;;;9.22;89.85
77799;BME280;66989;50.426;15.352;2024-03-23T02:27:12;97247.28;;;9.19;90.25
77799;BME280;66989;50.426;15.352;2024-03-23T02:29:38;97244.09;;;9.16;90.37
77799;BME280;66989;50.426;15.352;2024-03-23T02:32:03;97258.19;;;9.15;90.51
77799;BME280;66989;50.426;15.352;2024-03-23T02:34:29;97248.66;;;9.14;90.61
77799;BME280;66989;50.426;15.352;2024-03-23T02:36:54;97251.41;;;9.12;90.49
77799;BME280;66989;50.426;15.352;2024-03-23T02:39:19;97251.41;;;9.12;91.03
77799;BME280;66989;50.426;15.352;2024-03-23T02:41:45;97246.28;;;9.11;90.89
77799;BME280;66989;50.426;15.352;2024-03-23T02:44:10;97241.41;;;9.06;91.23
77799;BME280;66989;50.426;15.352;2024-03-23T02:46:37;97238.34;;;9.01;91.41
77799;BME280;66989;50.426;15.352;2024-03-23T02:49:03;97234.44;;;8.95;91.79
77799;BME280;66989;50.426;15.352;2024-03-23T02:51:29;97230.78;;;8.87;92.09
77799;BME280;66989;50.426;15.352;2024-03-23T02:53:55;97231.31;;;8.81;92.13
77799;BME280;66989;50.426;15.352;2024-03-23T02:56:20;97238.06;;;8.73;92.09
77799;BME280;66989;50.426;15.352;2024-03-23T02:58:45;97235.97;;;8.67;92.48
77799;BME280;66989;50.426;15.352;2024-03-23T03:01:11;97227.75;;;8.61;92.29
77799;BME280;66989;50.426;15.352;2024-03-23T03:03:36;97228.13;;;8.56;92.59
77799;BME280;66989;50.426;15.352;2024-03-23T03:06:02;97217.31;;;8.49;93.10
77799;BME280;66989;50.426;15.352;2024-03-23T03:08:27;97215.06;;;8.45;93.21
77799;BME280;66989;50.426;15.352;2024-03-23T03:10:53;97215.44;;;8.40;93.05
77799;BME280;66989;50.426;15.352;2024-03-23T03:13:18;97206.19;;;8.36;93.36
77799;BME280;66989;50.426;15.352;2024-03-23T03:15:44;97194.25;;;8.32;92.97
77799;BME280;66989;50.426;15.352;2024-03-23T03:18:09;97188.41;;;8.29;93.24
77799;BME280;66989;50.426;15.352;2024-03-23T03:20:38;97189.78;;;8.23;93.20
77799;BME280;66989;50.426;15.352;2024-03-23T03:23:04;97180.63;;;8.17;92.94
77799;BME280;66989;50.426;15.352;2024-03-23T03:25:30;97181.97;;;8.12;93.20
77799;BME280;66989;50.426;15.352;2024-03-23T03:27:55;97185.66;;;8.09;93.23
77799;BME280;66989;50.426;15.352;2024-03-23T03:30:20;97185.09;;;8.06;93.64
77799;BME280;66989;50.426;15.352;2024-03-23T03:32:46;97181.75;;;8.04;92.94
77799;BME280;66989;50.426;15.352;2024-03-23T03:35:11;97179.25;;;8.02;92.65
77799;BME280;66989;50.426;15.352;2024-03-23T03:37:37;97178.56;;;8.00;92.93
77799;BME280;66989;50.426;15.352;2024-03-23T03:40:02;97171.63;;;7.99;92.94
77799;BME280;66989;50.426;15.352;2024-03-23T03:42:28;97171.06;;;7.95;93.39
77799;BME280;66989;50.426;15.352;2024-03-23T03:44:53;97172.97;;;7.93;92.98
77799;BME280;66989;50.426;15.352;2024-03-23T03:47:19;97178.56;;;7.89;93.04
77799;BME280;66989;50.426;15.352;2024-03-23T03:49:44;97180.72;;;7.84;93.74
77799;BME280;66989;50.426;15.352;2024-03-23T03:52:10;97175.97;;;7.78;94.27
77799;BME280;66989;50.426;15.352;2024-03-23T03:54:36;97174.69;;;7.72;94.70
77799;BME280;66989;50.426;15.352;2024-03-23T03:57:01;97171.63;;;7.67;95.29
77799;BME280;66989;50.426;15.352;2024-03-23T03:59:30;97176.53;;;7.60;95.76
77799;BME280;66989;50.426;15.352;2024-03-23T04:01:55;97178.94;;;7.52;96.04
77799;BME280;66989;50.426;15.352;2024-03-23T04:04:20;97174.06;;;7.47;97.04
77799;BME280;66989;50.426;15.352;2024-03-23T04:06:47;97171.09;;;7.41;97.15
77799;BME280;66989;50.426;15.352;2024-03-23T04:09:13;97166.22;;;7.36;97.30
77799;BME280;66989;50.426;15.352;2024-03-23T04:11:38;97166.84;;;7.29;97.52
77799;BME280;66989;50.426;15.352;2024-03-23T04:14:03;97154.25;;;7.22;97.77
77799;BME280;66989;50.426;15.352;2024-03-23T04:16:34;97157.31;;;7.16;98.00
77799;BME280;66989;50.426;15.352;2024-03-23T04:19:00;97149.84;;;7.12;98.02
77799;BME280;66989;50.426;15.352;2024-03-23T04:21:25;97148.44;;;7.08;98.95
77799;BME280;66989;50.426;15.352;2024-03-23T04:23:50;97152.94;;;7.06;99.11
77799;BME280;66989;50.426;15.352;2024-03-23T04:26:16;97147.97;;;7.03;99.28
77799;BME280;66989;50.426;15.352;2024-03-23T04:28:41;97142.94;;;7.00;99.45
77799;BME280;66989;50.426;15.352;2024-03-23T04:31:08;97141.28;;;6.99;99.82
77799;BME280;66989;50.426;15.352;2024-03-23T04:33:33;97140.59;;;6.96;99.75
77799;BME280;66989;50.426;15.352;2024-03-23T04:35:59;97134.47;;;6.96;99.54
77799;BME280;66989;50.426;15.352;2024-03-23T04:38:24;97122.47;;;6.93;99.35
77799;BME280;66989;50.426;15.352;2024-03-23T04:40:56;97118.19;;;6.92;99.18
77799;BME280;66989;50.426;15.352;2024-03-23T04:43:22;97113.19;;;6.89;99.43
77799;BME280;66989;50.426;15.352;2024-03-23T04:45:48;97115.94;;;6.88;98.84
77799;BME280;66989;50.426;15.352;2024-03-23T04:48:13;97116.91;;;6.87;98.69
77799;BME280;66989;50.426;15.352;2024-03-23T04:50:39;97117.13;;;6.84;98.08
77799;BME280;66989;50.426;15.352;2024-03-23T04:53:05;97118.22;;;6.81;98.52
77799;BME280;66989;50.426;15.352;2024-03-23T04:55:31;97118.91;;;6.83;98.09
77799;BME280;66989;50.426;15.352;2024-03-23T04:57:56;97118.91;;;6.83;98.01
77799;BME280;66989;50.426;15.352;2024-03-23T05:00:22;97112.59;;;6.86;97.79
77799;BME280;66989;50.426;15.352;2024-03-23T05:02:48;97103.06;;;6.85;97.46
77799;BME280;66989;50.426;15.352;2024-03-23T05:05:14;97104.84;;;6.84;97.63
77799;BME280;66989;50.426;15.352;2024-03-23T05:07:39;97111.53;;;6.88;97.71
77799;BME280;66989;50.426;15.352;2024-03-23T05:10:08;97097.47;;;6.89;97.66
77799;BME280;66989;50.426;15.352;2024-03-23T05:12:37;97095.31;;;6.94;97.64
77799;BME280;66989;50.426;15.352;2024-03-23T05:15:04;97089.00;;;6.97;97.58
77799;BME280;66989;50.426;15.352;2024-03-23T05:17:31;97088.75;;;7.00;97.42
77799;BME280;66989;50.426;15.352;2024-03-23T05:19:56;97088.38;;;7.05;97.36
77799;BME280;66989;50.426;15.352;2024-03-23T05:22:22;97078.50;;;7.08;97.12
77799;BME280;66989;50.426;15.352;2024-03-23T05:24:47;97071.22;;;7.12;96.51
77799;BME280;66989;50.426;15.352;2024-03-23T05:27:13;97069.88;;;7.17;96.23
77799;BME280;66989;50.426;15.352;2024-03-23T05:29:38;97066.03;;;7.21;95.90
77799;BME280;66989;50.426;15.352;2024-03-23T05:32:04;97060.44;;;7.26;95.68
77799;BME280;66989;50.426;15.352;2024-03-23T05:34:29;97059.34;;;7.29;94.85
77799;BME280;66989;50.426;15.352;2024-03-23T05:36:55;97058.16;;;7.33;94.54
77799;BME280;66989;50.426;15.352;2024-03-23T05:39:20;97061.94;;;7.40;94.52
77799;BME280;66989;50.426;15.352;2024-03-23T05:41:47;97056.31;;;7.44;94.07
77799;BME280;66989;50.426;15.352;2024-03-23T05:44:13;97059.38;;;7.49;94.11
77799;BME280;66989;50.426;15.352;2024-03-23T05:46:39;97054.72;;;7.53;93.82
77799;BME280;66989;50.426;15.352;2024-03-23T05:49:07;97060.53;;;7.57;93.67
77799;BME280;66989;50.426;15.352;2024-03-23T05:51:32;97057.53;;;7.61;93.19
77799;BME280;66989;50.426;15.352;2024-03-23T05:53:58;97055.50;;;7.65;93.54
77799;BME280;66989;50.426;15.352;2024-03-23T05:56:23;97044.72;;;7.68;93.27
77799;BME280;66989;50.426;15.352;2024-03-23T05:58:51;97047.34;;;7.68;92.99
77799;BME280;66989;50.426;15.352;2024-03-23T06:01:16;97035.78;;;7.70;92.77
77799;BME280;66989;50.426;15.352;2024-03-23T06:03:42;97034.69;;;7.73;93.38
77799;BME280;66989;50.426;15.352;2024-03-23T06:06:09;97034.06;;;7.81;93.05
77799;BME280;66989;50.426;15.352;2024-03-23T06:08:38;97018.91;;;7.84;92.33
77799;BME280;66989;50.426;15.352;2024-03-23T06:11:04;97023.16;;;7.85;92.02
77799;BME280;66989;50.426;15.352;2024-03-23T06:13:31;97017.09;;;7.85;92.07
77799;BME280;66989;50.426;15.352;2024-03-23T06:15:57;97021.09;;;7.89;91.65
77799;BME280;66989;50.426;15.352;2024-03-23T06:18:23;97016.47;;;7.92;91.44
77799;BME280;66989;50.426;15.352;2024-03-23T06:20:49;97016.31;;;7.94;91.41
77799;BME280;66989;50.426;15.352;2024-03-23T06:23:15;97009.41;;;7.93;91.60
77799;BME280;66989;50.426;15.352;2024-03-23T06:25:43;97011.94;;;7.94;91.48
77799;BME280;66989;50.426;15.352;2024-03-23T06:28:08;96999.34;;;7.98;91.56
77799;BME280;66989;50.426;15.352;2024-03-23T06:30:34;97001.72;;;8.01;91.59
77799;BME280;66989;50.426;15.352;2024-03-23T06:32:59;97001.44;;;8.04;91.65
77799;BME280;66989;50.426;15.352;2024-03-23T06:35:25;96993.19;;;8.09;91.77
77799;BME280;66989;50.426;15.352;2024-03-23T06:37:50;96995.41;;;8.13;91.92
77799;BME280;66989;50.426;15.352;2024-03-23T06:40:16;96984.97;;;8.23;91.79
77799;BME280;66989;50.426;15.352;2024-03-23T06:42:41;96983.03;;;8.25;91.85
77799;BME280;66989;50.426;15.352;2024-03-23T06:45:07;96979.97;;;8.20;91.38
77799;BME280;66989;50.426;15.352;2024-03-23T06:47:32;96979.13;;;8.19;92.29
77799;BME280;66989;50.426;15.352;2024-03-23T06:50:02;96976.41;;;8.21;93.05
77799;BME280;66989;50.426;15.352;2024-03-23T06:52:28;96967.25;;;8.25;92.76
77799;BME280;66989;50.426;15.352;2024-03-23T06:54:53;96980.81;;;8.30;93.19
77799;BME280;66989;50.426;15.352;2024-03-23T06:57:19;96978.63;;;8.35;92.42
77799;BME280;66989;50.426;15.352;2024-03-23T06:59:44;96978.22;;;8.40;92.73
77799;BME280;66989;50.426;15.352;2024-03-23T07:02:10;96963.88;;;8.44;92.07
77799;BME280;66989;50.426;15.352;2024-03-23T07:04:36;96955.44;;;8.50;92.57
77799;BME280;66989;50.426;15.352;2024-03-23T07:07:02;96944.53;;;8.55;91.45
77799;BME280;66989;50.426;15.352;2024-03-23T07:09:30;96938.47;;;8.64;91.08
77799;BME280;66989;50.426;15.352;2024-03-23T07:11:58;96932.94;;;8.76;90.69
77799;BME280;66989;50.426;15.352;2024-03-23T07:14:24;96921.75;;;8.84;90.61
77799;BME280;66989;50.426;15.352;2024-03-23T07:16:50;96931.44;;;8.93;89.94
77799;BME280;66989;50.426;15.352;2024-03-23T07:19:19;96918.72;;;8.98;90.50
77799;BME280;66989;50.426;15.352;2024-03-23T07:21:44;96917.59;;;9.01;90.06
77799;BME280;66989;50.426;15.352;2024-03-23T07:24:10;96909.28;;;9.05;91.30
77799;BME280;66989;50.426;15.352;2024-03-23T07:26:36;96905.69;;;9.07;90.44
77799;BME280;66989;50.426;15.352;2024-03-23T07:29:03;96916.91;;;9.09;90.93
77799;BME280;66989;50.426;15.352;2024-03-23T07:31:29;96923.94;;;9.18;90.49
77799;BME280;66989;50.426;15.352;2024-03-23T07:33:54;96936.41;;;9.25;89.96
77799;BME280;66989;50.426;15.352;2024-03-23T07:36:19;96961.31;;;9.31;89.77
77799;BME280;66989;50.426;15.352;2024-03-23T07:38:45;96940.66;;;9.36;90.06
77799;BME280;66989;50.426;15.352;2024-03-23T07:41:12;96918.22;;;9.42;90.29
77799;BME280;66989;50.426;15.352;2024-03-23T07:43:40;96926.38;;;9.48;90.41
77799;BME280;66989;50.426;15.352;2024-03-23T07:46:05;96912.53;;;9.56;90.70
77799;BME280;66989;50.426;15.352;2024-03-23T07:48:32;96905.00;;;9.71;91.19
77799;BME280;66989;50.426;15.352;2024-03-23T07:53:26;96882.91;;;10.37;86.04
77799;BME280;66989;50.426;15.352;2024-03-23T07:55:54;96890.16;;;10.88;83.28
77799;BME280;66989;50.426;15.352;2024-03-23T07:58:20;96865.63;;;11.57;82.34
77799;BME280;66989;50.426;15.352;2024-03-23T08:00:45;96854.69;;;11.86;79.18
77799;BME280;66989;50.426;15.352;2024-03-23T08:03:11;96844.53;;;12.08;78.75
77799;BME280;66989;50.426;15.352;2024-03-23T08:05:36;96835.34;;;12.20;76.52
77799;BME280;66989;50.426;15.352;2024-03-23T08:08:01;96822.59;;;12.15;76.90
77799;BME280;66989;50.426;15.352;2024-03-23T08:10:27;96821.38;;;12.36;77.40
77799;BME280;66989;50.426;15.352;2024-03-23T08:12:52;96812.13;;;12.64;73.96
77799;BME280;66989;50.426;15.352;2024-03-23T08:15:17;96808.69;;;12.97;72.60
77799;BME280;66989;50.426;15.352;2024-03-23T08:17:43;96794.25;;;13.15;71.80
77799;BME280;66989;50.426;15.352;2024-03-23T08:20:08;96791.22;;;13.35;71.45
77799;BME280;66989;50.426;15.352;2024-03-23T08:22:34;96776.91;;;13.60;71.01
77799;BME280;66989;50.426;15.352;2024-03-23T08:24:59;96774.19;;;13.77;70.51
77799;BME280;66989;50.426;15.352;2024-03-23T08:27:24;96759.59;;;14.20;69.13
77799;BME280;66989;50.426;15.352;2024-03-23T08:29:50;96760.50;;;15.11;66.97
77799;BME280;66989;50.426;15.352;2024-03-23T08:32:15;96756.06;;;15.41;64.93
77799;BME280;66989;50.426;15.352;2024-03-23T08:34:42;96751.50;;;15.49;64.72
77799;BME280;66989;50.426;15.352;2024-03-23T08:37:07;96758.03;;;15.98;62.06
77799;BME280;66989;50.426;15.352;2024-03-23T08:39:32;96751.41;;;16.08;61.58
77799;BME280;66989;50.426;15.352;2024-03-23T08:41:59;96749.25;;;15.82;61.20
77799;BME280;66989;50.426;15.352;2024-03-23T08:44:24;96746.41;;;16.20;60.11
77799;BME280;66989;50.426;15.352;2024-03-23T08:46:51;96745.84;;;16.46;60.16
77799;BME280;66989;50.426;15.352;2024-03-23T08:49:16;96749.47;;;16.39;59.79
77799;BME280;66989;50.426;15.352;2024-03-23T08:51:41;96747.00;;;16.37;60.03
77799;BME280;66989;50.426;15.352;2024-03-23T08:54:07;96741.41;;;16.96;58.34
77799;BME280;66989;50.426;15.352;2024-03-23T08:56:32;96730.84;;;17.72;55.27
77799;BME280;66989;50.426;15.352;2024-03-23T08:58:57;96719.38;;;17.78;54.91
77799;BME280;66989;50.426;15.352;2024-03-23T09:01:23;96711.28;;;18.20;54.54
77799;BME280;66989;50.426;15.352;2024-03-23T09:03:48;96708.91;;;19.04;52.59
77799;BME280;66989;50.426;15.352;2024-03-23T09:06:14;96705.97;;;19.32;52.47
77799;BME280;66989;50.426;15.352;2024-03-23T09:08:40;96700.66;;;18.53;52.90
77799;BME280;66989;50.426;15.352;2024-03-23T09:11:08;96709.88;;;18.44;53.60
77799;BME280;66989;50.426;15.352;2024-03-23T09:13:35;96709.44;;;18.20;54.49
77799;BME280;66989;50.426;15.352;2024-03-23T09:16:01;96700.50;;;18.87;52.82
77799;BME280;66989;50.426;15.352;2024-03-23T09:18:26;96690.16;;;19.24;52.80
77799;BME280;66989;50.426;15.352;2024-03-23T09:20:52;96697.50;;;19.49;52.05
77799;BME280;66989;50.426;15.352;2024-03-23T09:23:22;96685.00;;;19.29;52.12
77799;BME280;66989;50.426;15.352;2024-03-23T09:25:48;96692.56;;;20.04;50.60
77799;BME280;66989;50.426;15.352;2024-03-23T09:28:13;96678.88;;;20.50;49.74
77799;BME280;66989;50.426;15.352;2024-03-23T09:30:38;96672.78;;;21.55;48.02
77799;BME280;66989;50.426;15.352;2024-03-23T09:33:08;96671.84;;;22.27;45.58
77799;BME280;66989;50.426;15.352;2024-03-23T09:35:37;96661.69;;;21.99;46.09
77799;BME280;66989;50.426;15.352;2024-03-23T09:38:02;96665.50;;;21.00;46.78
77799;BME280;66989;50.426;15.352;2024-03-23T09:40:28;96666.34;;;20.76;48.00
77799;BME280;66989;50.426;15.352;2024-03-23T09:42:54;96677.09;;;21.19;48.06
77799;BME280;66989;50.426;15.352;2024-03-23T09:45:21;96671.59;;;21.50;47.60
77799;BME280;66989;50.426;15.352;2024-03-23T09:47:46;96662.22;;;21.60;46.51
77799;BME280;66989;50.426;15.352;2024-03-23T09:50:13;96645.47;;;21.94;45.87
77799;BME280;66989;50.426;15.352;2024-03-23T09:52:39;96641.84;;;22.30;45.04
77799;BME280;66989;50.426;15.352;2024-03-23T09:55:05;96638.81;;;21.67;45.97
77799;BME280;66989;50.426;15.352;2024-03-23T09:57:31;96637.16;;;20.92;45.91
77799;BME280;66989;50.426;15.352;2024-03-23T09:59:56;96635.59;;;20.28;47.92
77799;BME280;66989;50.426;15.352;2024-03-23T10:02:23;96633.59;;;19.85;48.59
77799;BME280;66989;50.426;15.352;2024-03-23T10:04:49;96629.53;;;19.69;49.56
77799;BME280;66989;50.426;15.352;2024-03-23T10:07:18;96619.91;;;19.62;49.14
77799;BME280;66989;50.426;15.352;2024-03-23T10:09:44;96630.56;;;19.17;49.58
77799;BME280;66989;50.426;15.352;2024-03-23T10:12:11;96623.66;;;18.56;50.52
77799;BME280;66989;50.426;15.352;2024-03-23T10:14:40;96636.97;;;18.10;52.40
77799;BME280;66989;50.426;15.352;2024-03-23T10:19:48;96647.97;;;16.91;54.06
77799;BME280;66989;50.426;15.352;2024-03-23T10:22:22;96653.56;;;16.25;55.82
77799;BME280;66989;50.426;15.352;2024-03-23T10:24:48;96673.78;;;15.62;57.81
77799;BME280;66989;50.426;15.352;2024-03-23T10:27:19;96670.34;;;15.32;58.40
77799;BME280;66989;50.426;15.352;2024-03-23T10:29:49;96672.72;;;14.83;58.01
77799;BME280;66989;50.426;15.352;2024-03-23T10:32:16;96681.38;;;14.62;60.30
77799;BME280;66989;50.426;15.352;2024-03-23T10:34:42;96679.03;;;14.44;61.50
77799;BME280;66989;50.426;15.352;2024-03-23T10:37:08;96661.03;;;14.16;61.37
77799;BME280;66989;50.426;15.352;2024-03-23T10:39:38;96680.47;;;14.09;62.61
77799;BME280;66989;50.426;15.352;2024-03-23T10:42:13;96658.63;;;14.07;63.85
77799;BME280;66989;50.426;15.352;2024-03-23T10:44:41;96681.47;;;14.08;65.19
77799;BME280;66989;50.426;15.352;2024-03-23T10:47:06;96687.31;;;14.03;64.04
77799;BME280;66989;50.426;15.352;2024-03-23T10:49:33;96716.31;;;14.05;67.28
77799;BME280;66989;50.426;15.352;2024-03-23T10:52:05;96715.31;;;13.97;66.81
77799;BME280;66989;50.426;15.352;2024-03-23T10:54:32;96723.75;;;14.01;68.47
77799;BME280;66989;50.426;15.352;2024-03-23T10:57:14;96727.25;;;14.02;68.82
77799;BME280;66989;50.426;15.352;2024-03-23T10:59:43;96709.09;;;14.13;70.06
77799;BME280;66989;50.426;15.352;2024-03-23T11:02:18;96713.16;;;14.01;69.78
77799;BME280;66989;50.426;15.352;2024-03-23T11:04:44;96716.97;;;13.98;69.43
77799;BME280;66989;50.426;15.352;2024-03-23T11:07:29;96707.34;;;14.06;68.99
77799;BME280;66989;50.426;15.352;2024-03-23T11:09:55;96710.81;;;14.06;68.83
77799;BME280;66989;50.426;15.352;2024-03-23T11:14:51;96712.38;;;13.92;69.26
77799;BME280;66989;50.426;15.352;2024-03-23T11:17:27;96715.69;;;13.94;70.31
77799;BME280;66989;50.426;15.352;2024-03-23T11:22:43;96710.81;;;13.75;70.79
77799;BME280;66989;50.426;15.352;2024-03-23T11:25:18;96716.31;;;13.65;68.66
77799;BME280;66989;50.426;15.352;2024-03-23T11:27:46;96719.56;;;13.44;67.07
77799;BME280;66989;50.426;15.352;2024-03-23T11:30:19;96729.22;;;13.29;67.73
77799;BME280;66989;50.426;15.352;2024-03-23T11:32:48;96722.09;;;13.21;67.67
77799;BME280;66989;50.426;15.352;2024-03-23T11:40:28;96765.34;;;12.89;68.66
77799;BME280;66989;50.426;15.352;2024-03-23T11:42:58;96744.69;;;12.85;69.27
77799;BME280;66989;50.426;15.352;2024-03-23T11:45:24;96747.84;;;12.80;69.24
77799;BME280;66989;50.426;15.352;2024-03-23T11:48:22;96731.63;;;12.83;69.09
77799;BME280;66989;50.426;15.352;2024-03-23T11:50:49;96730.13;;;12.89;68.20
77799;BME280;66989;50.426;15.352;2024-03-23T11:53:17;96704.66;;;12.96;68.39
77799;BME280;66989;50.426;15.352;2024-03-23T11:55:57;96707.91;;;13.14;67.69
77799;BME280;66989;50.426;15.352;2024-03-23T11:58:24;96715.47;;;13.26;67.98
77799;BME280;66989;50.426;15.352;2024-03-23T12:00:50;96713.16;;;13.31;66.95
77799;BME280;66989;50.426;15.352;2024-03-23T12:03:17;96726.22;;;13.32;67.94
77799;BME280;66989;50.426;15.352;2024-03-23T12:05:47;96736.47;;;13.35;67.14
77799;BME280;66989;50.426;15.352;2024-03-23T12:08:40;96730.00;;;13.38;66.72
77799;BME280;66989;50.426;15.352;2024-03-23T12:11:16;96737.59;;;13.41;67.70
77799;BME280;66989;50.426;15.352;2024-03-23T12:13:43;96726.63;;;13.52;68.33
77799;BME280;66989;50.426;15.352;2024-03-23T12:16:16;96727.31;;;13.46;67.62
77799;BME280;66989;50.426;15.352;2024-03-23T12:18:43;96750.69;;;13.34;68.67
77799;BME280;66989;50.426;15.352;2024-03-23T12:21:09;96740.66;;;13.05;69.24
77799;BME280;66989;50.426;15.352;2024-03-23T12:23:35;96742.72;;;12.71;72.05
77799;BME280;66989;50.426;15.352;2024-03-23T12:26:00;96761.88;;;12.48;74.28
77799;BME280;66989;50.426;15.352;2024-03-23T12:28:26;96749.00;;;12.29;75.40
77799;BME280;66989;50.426;15.352;2024-03-23T12:30:52;96766.13;;;12.16;75.87
77799;BME280;66989;50.426;15.352;2024-03-23T12:33:19;96763.47;;;12.08;76.55
77799;BME280;66989;50.426;15.352;2024-03-23T12:35:44;96773.38;;;12.06;76.25
77799;BME280;66989;50.426;15.352;2024-03-23T12:38:10;96793.00;;;11.96;76.63
77799;BME280;66989;50.426;15.352;2024-03-23T12:40:35;96805.31;;;11.79;73.39
77799;BME280;66989;50.426;15.352;2024-03-23T12:43:00;96819.22;;;11.47;73.61
77799;BME280;66989;50.426;15.352;2024-03-23T12:45:26;96825.16;;;11.23;71.10
77799;BME280;66989;50.426;15.352;2024-03-23T12:47:52;96825.84;;;10.81;72.14
77799;BME280;66989;50.426;15.352;2024-03-23T12:50:21;96841.25;;;10.50;73.99
77799;BME280;66989;50.426;15.352;2024-03-23T12:52:46;96840.63;;;10.38;74.27
77799;BME280;66989;50.426;15.352;2024-03-23T12:55:12;96845.47;;;10.43;73.65
77799;BME280;66989;50.426;15.352;2024-03-23T12:57:38;96848.09;;;10.43;71.83
77799;BME280;66989;50.426;15.352;2024-03-23T13:00:04;96844.22;;;10.37;69.24
77799;BME280;66989;50.426;15.352;2024-03-23T13:02:30;96851.06;;;10.30;67.86
77799;BME280;66989;50.426;15.352;2024-03-23T13:04:55;96861.44;;;10.31;67.41
77799;BME280;66989;50.426;15.352;2024-03-23T13:07:22;96869.22;;;10.33;68.30
77799;BME280;66989;50.426;15.352;2024-03-23T13:09:50;96873.34;;;10.35;67.17
77799;BME280;66989;50.426;15.352;2024-03-23T13:12:16;96859.78;;;10.30;67.46
77799;BME280;66989;50.426;15.352;2024-03-23T13:14:42;96854.22;;;10.33;65.00
77799;BME280;66989;50.426;15.352;2024-03-23T13:17:08;96869.09;;;10.25;64.19
77799;BME280;66989;50.426;15.352;2024-03-23T13:19:34;96890.47;;;10.22;64.85
77799;BME280;66989;50.426;15.352;2024-03-23T13:22:00;96908.63;;;10.25;64.75
77799;BME280;66989;50.426;15.352;2024-03-23T13:24:26;96949.50;;;10.29;64.62
77799;BME280;66989;50.426;15.352;2024-03-23T13:26:53;96944.72;;;10.15;65.71
77799;BME280;66989;50.426;15.352;2024-03-23T13:29:19;96960.03;;;10.01;65.59
77799;BME280;66989;50.426;15.352;2024-03-23T13:31:45;96960.47;;;10.24;65.03
77799;BME280;66989;50.426;15.352;2024-03-23T13:34:11;96988.88;;;10.30;64.61
77799;BME280;66989;50.426;15.352;2024-03-23T13:36:38;96984.81;;;10.08;66.27
77799;BME280;66989;50.426;15.352;2024-03-23T13:39:03;96999.00;;;9.88;66.17
77799;BME280;66989;50.426;15.352;2024-03-23T13:41:37;97010.53;;;9.77;66.65
77799;BME280;66989;50.426;15.352;2024-03-23T13:44:03;97029.81;;;9.58;65.67
77799;BME280;66989;50.426;15.352;2024-03-23T13:46:28;97024.16;;;9.34;66.42
77799;BME280;66989;50.426;15.352;2024-03-23T13:48:54;97040.75;;;9.15;67.02
77799;BME280;66989;50.426;15.352;2024-03-23T13:51:23;97024.41;;;9.02;65.93
77799;BME280;66989;50.426;15.352;2024-03-23T13:53:49;97037.13;;;8.97;66.18
77799;BME280;66989;50.426;15.352;2024-03-23T13:56:15;97044.72;;;8.90;66.46
77799;BME280;66989;50.426;15.352;2024-03-23T13:58:40;97065.16;;;8.77;67.17
77799;BME280;66989;50.426;15.352;2024-03-23T14:01:10;97068.72;;;8.66;67.34